createdAt,value
2023-02-03T00:00:20.884Z,101496.22
2023-02-03T00:02:52.021Z,101504.00
2023-02-03T00:05:21.297Z,101502.50
2023-02-03T00:07:48.599Z,101500.09
2023-02-03T00:10:22.217Z,101513.28
2023-02-03T00:12:52.435Z,101514.72
2023-02-03T00:15:32.700Z,101521.31
2023-02-03T00:17:59.969Z,101515.03
2023-02-03T00:20:30.168Z,101510.72
2023-02-03T00:23:05.331Z,101513.09
2023-02-03T00:25:32.628Z,101515.38
2023-02-03T00:28:00.161Z,101522.63
2023-02-03T00:30:32.318Z,101509.59
2023-02-03T00:33:05.303Z,101520.38
2023-02-03T00:35:35.621Z,101515.66
2023-02-03T00:38:06.068Z,101501.09
2023-02-03T00:40:35.949Z,101497.94
2023-02-03T00:43:03.930Z,101502.88
2023-02-03T00:45:33.113Z,101486.88
2023-02-03T00:48:01.158Z,101486.44
2023-02-03T00:50:30.972Z,101493.63
2023-02-03T00:53:09.160Z,101491.16
2023-02-03T00:55:39.975Z,101490.88
2023-02-03T00:58:10.161Z,101487.31
2023-02-03T01:00:43.344Z,101490.78
2023-02-03T01:03:13.190Z,101496.88
2023-02-03T01:05:41.215Z,101488.00
2023-02-03T01:08:08.444Z,101489.94
2023-02-03T01:10:38.968Z,101488.63
2023-02-03T01:13:06.167Z,101488.16
2023-02-03T01:15:34.969Z,101485.19
2023-02-03T01:18:02.235Z,101480.34
2023-02-03T01:20:29.940Z,101478.78
2023-02-03T01:23:00.859Z,101487.31
2023-02-03T01:25:28.159Z,101478.88
2023-02-03T01:27:59.607Z,101486.25
2023-02-03T01:30:30.025Z,101472.16
2023-02-03T01:32:57.611Z,101466.13
2023-02-03T01:35:30.403Z,101473.19
2023-02-03T01:38:09.454Z,101450.09
2023-02-03T01:40:45.467Z,101460.94
2023-02-03T01:43:28.793Z,101475.66
2023-02-03T01:45:56.175Z,101463.53
2023-02-03T01:48:26.112Z,101463.94
2023-02-03T01:50:53.532Z,101462.00
2023-02-03T01:53:23.565Z,101456.91
2023-02-03T01:55:51.215Z,101450.09
2023-02-03T01:58:25.818Z,101444.38
2023-02-03T02:00:54.340Z,101449.66
2023-02-03T02:03:25.490Z,101453.03
2023-02-03T02:06:11.061Z,101449.00
2023-02-03T02:08:42.405Z,101443.19
2023-02-03T02:11:10.174Z,101445.56
2023-02-03T02:13:40.921Z,101435.38
2023-02-03T02:16:17.550Z,101440.03
2023-02-03T02:19:07.670Z,101434.47
2023-02-03T02:21:41.596Z,101426.69
2023-02-03T02:24:08.775Z,101427.31
2023-02-03T02:26:55.489Z,101429.69
2023-02-03T02:29:23.800Z,101426.81
2023-02-03T02:32:20.857Z,101414.28
2023-02-03T02:34:48.938Z,101401.03
2023-02-03T02:37:34.902Z,101408.72
2023-02-03T02:40:25.389Z,101406.09
2023-02-03T02:42:59.825Z,101399.88
2023-02-03T02:45:32.259Z,101403.97
2023-02-03T02:48:05.449Z,101403.09
2023-02-03T02:50:41.363Z,101409.75
2023-02-03T02:53:10.473Z,101413.94
2023-02-03T02:55:45.111Z,101412.44
2023-02-03T02:58:15.932Z,101402.41
2023-02-03T03:00:53.101Z,101412.44
2023-02-03T03:03:22.043Z,101408.50
2023-02-03T03:05:52.481Z,101412.00
2023-02-03T03:08:30.007Z,101406.84
2023-02-03T03:10:58.480Z,101415.69
2023-02-03T03:13:33.183Z,101409.53
2023-02-03T03:16:07.707Z,101407.63
2023-02-03T03:18:41.538Z,101411.06
2023-02-03T03:21:13.007Z,101405.94
2023-02-03T03:23:46.961Z,101413.03
2023-02-03T03:26:28.891Z,101411.88
2023-02-03T03:29:02.925Z,101402.63
2023-02-03T03:31:33.176Z,101406.38
2023-02-03T03:34:01.204Z,101410.72
2023-02-03T03:36:55.046Z,101410.75
2023-02-03T03:39:44.800Z,101415.66
2023-02-03T03:42:12.026Z,101414.69
2023-02-03T03:44:43.521Z,101418.03
2023-02-03T03:47:23.480Z,101413.72
2023-02-03T03:49:51.892Z,101412.84
2023-02-03T03:52:22.270Z,101415.19
2023-02-03T03:54:51.338Z,101408.03
2023-02-03T03:57:22.548Z,101406.81
2023-02-03T03:59:50.857Z,101411.75
2023-02-03T04:02:20.179Z,101401.97
2023-02-03T04:04:48.375Z,101393.94
2023-02-03T04:07:16.209Z,101400.91
2023-02-03T04:09:43.758Z,101397.72
2023-02-03T04:12:21.593Z,101404.41
2023-02-03T04:14:53.119Z,101392.28
2023-02-03T04:17:28.019Z,101386.66
2023-02-03T04:20:01.027Z,101394.88
2023-02-03T04:22:32.093Z,101397.34
2023-02-03T04:25:03.054Z,101389.16
2023-02-03T04:27:32.816Z,101381.09
2023-02-03T04:30:03.770Z,101382.03
2023-02-03T04:32:39.573Z,101390.53
2023-02-03T04:35:10.034Z,101384.94
2023-02-03T04:37:37.802Z,101368.94
2023-02-03T04:40:08.996Z,101366.59
2023-02-03T04:42:41.429Z,101371.19
2023-02-03T04:45:10.977Z,101368.06
2023-02-03T04:47:39.536Z,101361.06
2023-02-03T04:50:09.911Z,101365.22
2023-02-03T04:52:37.175Z,101353.16
2023-02-03T04:55:04.574Z,101348.28
2023-02-03T04:57:32.052Z,101350.63
2023-02-03T05:00:01.048Z,101341.00
2023-02-03T05:02:28.325Z,101335.38
2023-02-03T05:04:57.917Z,101336.00
2023-02-03T05:07:25.303Z,101334.44
2023-02-03T05:09:52.527Z,101326.00
2023-02-03T05:12:19.894Z,101329.84
2023-02-03T05:14:47.891Z,101321.03
2023-02-03T05:17:17.590Z,101322.72
2023-02-03T05:19:48.006Z,101319.09
2023-02-03T05:22:15.904Z,101315.75
2023-02-03T05:24:44.176Z,101320.16
2023-02-03T05:27:11.593Z,101318.47
2023-02-03T05:29:38.800Z,101314.53
2023-02-03T05:32:09.022Z,101305.66
2023-02-03T05:34:36.399Z,101297.06
2023-02-03T05:37:04.032Z,101301.91
2023-02-03T05:39:31.316Z,101294.44
2023-02-03T05:41:59.281Z,101293.41
2023-02-03T05:44:28.155Z,101299.16
2023-02-03T05:46:56.660Z,101291.50
2023-02-03T05:49:24.386Z,101289.25
2023-02-03T05:51:54.967Z,101283.63
2023-02-03T05:54:22.723Z,101289.72
2023-02-03T05:56:51.790Z,101287.31
2023-02-03T05:59:19.074Z,101292.97
2023-02-03T06:01:46.277Z,101292.56
2023-02-03T06:04:15.537Z,101293.41
2023-02-03T06:06:42.816Z,101288.88
2023-02-03T06:09:10.061Z,101285.22
2023-02-03T06:11:40.124Z,101289.56
2023-02-03T06:14:07.385Z,101283.63
2023-02-03T06:16:34.672Z,101280.41
2023-02-03T06:19:04.574Z,101281.31
2023-02-03T06:21:32.892Z,101279.13
2023-02-03T06:24:01.332Z,101282.53
2023-02-03T06:26:29.234Z,101270.50
2023-02-03T06:28:58.289Z,101272.78
2023-02-03T06:31:26.264Z,101277.09
2023-02-03T06:33:53.817Z,101269.50
2023-02-03T06:36:21.165Z,101265.28
2023-02-03T06:38:48.522Z,101257.59
2023-02-03T06:41:15.774Z,101250.81
2023-02-03T06:43:48.759Z,101249.25
2023-02-03T06:46:16.148Z,101251.03
2023-02-03T06:48:43.380Z,101244.94
2023-02-03T06:51:10.640Z,101241.78
2023-02-03T06:53:37.905Z,101240.56
2023-02-03T06:56:07.157Z,101235.28
2023-02-03T06:58:34.372Z,101232.84
2023-02-03T07:01:01.628Z,101222.72
2023-02-03T07:03:29.002Z,101227.28
2023-02-03T07:05:58.878Z,101222.28
2023-02-03T07:08:26.110Z,101216.50
2023-02-03T07:10:54.073Z,101214.06
2023-02-03T07:13:23.747Z,101196.84
2023-02-03T07:15:51.371Z,101197.59
2023-02-03T07:18:45.692Z,101205.69
2023-02-03T07:21:08.898Z,101193.22
2023-02-03T07:23:45.363Z,101189.28
2023-02-03T07:26:14.011Z,101186.63
2023-02-03T07:28:41.390Z,101192.66
2023-02-03T07:31:10.562Z,101193.47
2023-02-03T07:33:38.711Z,101188.97
2023-02-03T07:36:06.249Z,101189.88
2023-02-03T07:38:33.547Z,101188.97
2023-02-03T07:41:04.424Z,101181.13
2023-02-03T07:43:37.141Z,101178.34
2023-02-03T07:46:04.687Z,101173.81
2023-02-03T07:48:31.959Z,101174.25
2023-02-03T07:50:59.175Z,101178.13
2023-02-03T07:53:38.551Z,101173.19
2023-02-03T07:56:06.023Z,101166.91
2023-02-03T07:58:33.291Z,101166.50
2023-02-03T08:01:09.999Z,101169.16
2023-02-03T08:03:37.295Z,101169.34
2023-02-03T08:06:07.266Z,101175.69
2023-02-03T08:08:34.945Z,101169.66
2023-02-03T08:11:13.820Z,101165.03
2023-02-03T08:13:41.165Z,101170.44
2023-02-03T08:16:08.427Z,101175.56
2023-02-03T08:18:35.746Z,101169.09
2023-02-03T08:21:07.524Z,101171.22
2023-02-03T08:23:34.831Z,101169.50
2023-02-03T08:26:02.339Z,101161.59
2023-02-03T08:28:32.738Z,101159.28
2023-02-03T08:31:00.105Z,101155.94
2023-02-03T08:36:13.719Z,101142.13
2023-02-03T08:38:42.025Z,101141.66
2023-02-03T08:41:14.591Z,101131.38
2023-02-03T08:43:43.109Z,101131.47
2023-02-03T08:46:11.323Z,101134.53
2023-02-03T08:48:40.403Z,101132.41
2023-02-03T08:51:15.879Z,101133.53
2023-02-03T08:53:43.151Z,101124.06
2023-02-03T08:56:12.223Z,101126.50
2023-02-03T08:58:42.553Z,101121.88
2023-02-03T09:01:10.913Z,101125.53
2023-02-03T09:03:43.314Z,101116.06
2023-02-03T09:06:13.201Z,101111.56
2023-02-03T09:08:40.552Z,101115.50
2023-02-03T09:11:11.523Z,101110.91
2023-02-03T09:13:39.585Z,101115.47
2023-02-03T09:16:14.016Z,101103.81
2023-02-03T09:18:41.428Z,101106.28
2023-02-03T09:21:13.892Z,101100.56
2023-02-03T09:23:50.237Z,101103.78
2023-02-03T09:26:17.924Z,101107.84
2023-02-03T09:28:45.182Z,101103.41
2023-02-03T09:31:19.795Z,101108.84
2023-02-03T09:33:47.357Z,101103.31
2023-02-03T09:36:14.659Z,101101.34
2023-02-03T09:38:42.362Z,101104.75
2023-02-03T09:41:12.519Z,101102.16
2023-02-03T09:43:43.965Z,101091.94
2023-02-03T09:46:13.583Z,101087.84
2023-02-03T09:48:43.634Z,101087.78
2023-02-03T09:51:42.124Z,101078.31
2023-02-03T09:54:19.295Z,101068.97
2023-02-03T09:56:53.506Z,101069.94
2023-02-03T09:59:21.175Z,101064.16
2023-02-03T10:01:54.292Z,101054.63
2023-02-03T10:04:41.952Z,101059.84
2023-02-03T10:07:25.512Z,101052.16
2023-02-03T10:10:08.166Z,101057.13
2023-02-03T10:12:46.841Z,101059.84
2023-02-03T10:15:29.992Z,101046.31
2023-02-03T10:18:00.727Z,101049.63
2023-02-03T10:21:12.331Z,101038.19
2023-02-03T10:23:41.193Z,101034.25
2023-02-03T10:26:12.965Z,101026.63
2023-02-03T10:28:42.521Z,101024.16
2023-02-03T10:31:19.618Z,101012.09
2023-02-03T10:33:47.566Z,101013.34
2023-02-03T10:36:22.970Z,101010.56
2023-02-03T10:38:53.084Z,101002.69
2023-02-03T10:41:24.594Z,101004.19
2023-02-03T10:43:53.184Z,100994.78
2023-02-03T10:46:28.342Z,100998.03
2023-02-03T10:48:56.251Z,100992.06
2023-02-03T10:51:28.984Z,100988.06
2023-02-03T10:53:56.375Z,100987.94
2023-02-03T10:56:29.733Z,100968.53
2023-02-03T10:58:58.729Z,100971.69
2023-02-03T11:01:40.212Z,100961.38
2023-02-03T11:04:21.015Z,100965.28
2023-02-03T11:06:56.371Z,100958.53
2023-02-03T11:09:30.858Z,100967.28
2023-02-03T11:12:11.160Z,100958.38
2023-02-03T11:14:39.896Z,100945.91
2023-02-03T11:17:09.207Z,100945.41
2023-02-03T11:19:38.781Z,100944.16
2023-02-03T11:22:06.559Z,100931.84
2023-02-03T11:24:38.135Z,100932.09
2023-02-03T11:27:15.056Z,100933.09
2023-02-03T11:29:44.963Z,100920.06
2023-02-03T11:32:28.286Z,100918.56
2023-02-03T11:34:58.322Z,100930.34
2023-02-03T11:37:39.305Z,100934.81
2023-02-03T11:40:07.106Z,100930.84
2023-02-03T11:42:36.557Z,100918.41
2023-02-03T11:45:22.658Z,100923.25
2023-02-03T11:48:01.968Z,100915.50
2023-02-03T11:50:35.597Z,100922.72
2023-02-03T11:53:05.579Z,100928.09
2023-02-03T11:55:53.529Z,100932.44
2023-02-03T11:58:44.799Z,100926.47
2023-02-03T12:01:30.766Z,100929.94
2023-02-03T12:04:08.044Z,100926.78
2023-02-03T12:06:53.925Z,100928.41
2023-02-03T12:09:40.379Z,100926.97
2023-02-03T12:12:17.038Z,100926.22
2023-02-03T12:14:47.418Z,100923.25
2023-02-03T12:17:33.588Z,100913.06
2023-02-03T12:20:07.137Z,100914.38
2023-02-03T12:22:45.162Z,100909.47
2023-02-03T12:25:31.305Z,100919.41
2023-02-03T12:28:04.865Z,100920.06
2023-02-03T12:30:53.214Z,100919.81
2023-02-03T12:33:27.521Z,100921.97
2023-02-03T12:35:57.762Z,100923.75
2023-02-03T12:38:37.896Z,100914.88
2023-02-03T12:41:08.639Z,100918.34
2023-02-03T12:43:40.909Z,100909.25
2023-02-03T12:46:18.166Z,100906.50
2023-02-03T12:48:49.672Z,100905.72
2023-02-03T12:51:43.202Z,100915.63
2023-02-03T12:54:19.843Z,100909.63
2023-02-03T12:56:49.292Z,100904.41
2023-02-03T12:59:23.660Z,100894.00
2023-02-03T13:02:13.837Z,100903.72
2023-02-03T13:04:49.967Z,100892.53
2023-02-03T13:07:20.279Z,100895.59
2023-02-03T13:09:56.651Z,100898.31
2023-02-03T13:12:24.088Z,100903.38
2023-02-03T13:15:00.749Z,100905.59
2023-02-03T13:17:30.637Z,100893.97
2023-02-03T13:20:05.133Z,100892.94
2023-02-03T13:22:32.716Z,100895.56
2023-02-03T13:25:08.126Z,100888.00
2023-02-03T13:27:41.592Z,100900.03
2023-02-03T13:30:08.833Z,100895.38
2023-02-03T13:32:59.455Z,100900.53
2023-02-03T13:35:47.956Z,100900.59
2023-02-03T13:38:17.950Z,100903.13
2023-02-03T13:40:57.996Z,100903.88
2023-02-03T13:43:38.145Z,100903.25
2023-02-03T13:46:19.336Z,100912.69
2023-02-03T13:48:47.296Z,100911.44
2023-02-03T13:51:16.360Z,100905.53
2023-02-03T13:53:45.075Z,100906.03
2023-02-03T13:56:18.311Z,100920.03
2023-02-03T13:58:58.746Z,100917.38
2023-02-03T14:01:33.936Z,100924.50
2023-02-03T14:04:06.362Z,100914.19
2023-02-03T14:06:36.662Z,100912.75
2023-02-03T14:09:19.730Z,100914.81
2023-02-03T14:11:47.453Z,100918.66
2023-02-03T14:14:17.959Z,100920.84
2023-02-03T14:16:54.637Z,100914.66
2023-02-03T14:19:23.291Z,100922.25
2023-02-03T14:21:59.023Z,100920.38
2023-02-03T14:24:33.649Z,100924.09
2023-02-03T14:27:03.863Z,100924.38
2023-02-03T14:29:39.163Z,100927.38
2023-02-03T14:32:10.835Z,100928.25
2023-02-03T14:34:38.148Z,100927.81
2023-02-03T14:37:11.577Z,100924.56
2023-02-03T14:39:41.700Z,100932.47
2023-02-03T14:42:24.803Z,100928.19
2023-02-03T14:44:52.103Z,100933.22
2023-02-03T14:47:28.720Z,100930.88
2023-02-03T14:50:16.444Z,100936.81
2023-02-03T14:53:01.589Z,100935.38
2023-02-03T14:55:37.736Z,100933.94
2023-02-03T14:58:07.984Z,100932.59
2023-02-03T15:00:35.894Z,100936.44
2023-02-03T15:03:10.066Z,100938.91
2023-02-03T15:05:38.030Z,100938.19
2023-02-03T15:08:06.592Z,100956.19
2023-02-03T15:10:39.982Z,100958.84
2023-02-03T15:13:23.441Z,100950.16
2023-02-03T15:15:51.918Z,100961.13
2023-02-03T15:18:27.469Z,100962.38
2023-02-03T15:20:57.378Z,100966.50
2023-02-03T15:23:28.895Z,100976.13
2023-02-03T15:25:58.798Z,100978.81
2023-02-03T15:28:26.706Z,100980.31
2023-02-03T15:31:26.507Z,100991.91
2023-02-03T15:33:55.775Z,101001.25
2023-02-03T15:36:26.941Z,100992.75
2023-02-03T15:39:08.550Z,100992.03
2023-02-03T15:41:36.389Z,100981.69
2023-02-03T15:44:08.865Z,100998.69
2023-02-03T15:46:40.393Z,101009.59
2023-02-03T15:49:19.346Z,101007.66
2023-02-03T15:51:49.875Z,101009.59
2023-02-03T15:54:30.573Z,101018.75
2023-02-03T15:56:58.473Z,101027.56
2023-02-03T15:59:37.794Z,101026.88
2023-02-03T16:02:29.223Z,101033.25
2023-02-03T16:04:56.658Z,101044.94
2023-02-03T16:07:30.846Z,101042.00
2023-02-03T16:09:59.090Z,101043.38
2023-02-03T16:12:30.519Z,101046.31
2023-02-03T16:14:58.979Z,101060.81
2023-02-03T16:17:35.587Z,101069.31
2023-02-03T16:20:14.671Z,101068.50
2023-02-03T16:23:00.526Z,101077.44
2023-02-03T16:25:30.149Z,101073.16
2023-02-03T16:28:30.415Z,101087.06
2023-02-03T16:31:22.729Z,101090.00
2023-02-03T16:34:10.534Z,101094.28
2023-02-03T16:37:00.117Z,101101.44
2023-02-03T16:39:48.766Z,101108.84
2023-02-03T16:42:39.667Z,101106.63
2023-02-03T16:45:34.288Z,101123.63
2023-02-03T16:48:21.410Z,101126.59
2023-02-03T16:50:58.270Z,101127.78
2023-02-03T16:53:28.323Z,101125.34
2023-02-03T16:55:57.241Z,101138.44
2023-02-03T16:58:24.901Z,101140.63
2023-02-03T17:00:53.201Z,101145.06
2023-02-03T17:03:21.549Z,101140.00
2023-02-03T17:05:49.635Z,101134.22
2023-02-03T17:08:18.978Z,101141.38
2023-02-03T17:10:46.402Z,101133.19
2023-02-03T17:13:14.276Z,101140.06
2023-02-03T17:15:46.279Z,101142.38
2023-02-03T17:18:15.114Z,101145.53
2023-02-03T17:20:45.561Z,101142.09
2023-02-03T17:23:13.446Z,101143.56
2023-02-03T17:25:43.485Z,101155.13
2023-02-03T17:28:14.097Z,101147.50
2023-02-03T17:30:41.552Z,101153.66
2023-02-03T17:33:12.202Z,101154.88
2023-02-03T17:35:43.490Z,101162.31
2023-02-03T17:38:11.476Z,101166.69
2023-02-03T17:54:28.855Z,101203.78
2023-02-03T17:56:56.110Z,101206.53
2023-02-03T17:59:23.437Z,101207.66
2023-02-03T18:01:50.716Z,101215.00
2023-02-03T18:04:21.771Z,101224.94
2023-02-03T18:06:56.024Z,101225.44
2023-02-03T18:09:23.333Z,101234.66
2023-02-03T18:11:50.678Z,101229.22
2023-02-03T18:14:18.373Z,101241.06
2023-02-03T18:16:45.641Z,101242.53
2023-02-03T18:19:14.695Z,101248.78
2023-02-03T18:21:45.409Z,101248.53
2023-02-03T18:24:18.518Z,101262.09
2023-02-03T18:26:51.068Z,101268.16
2023-02-03T18:29:18.907Z,101271.13
2023-02-03T18:31:46.519Z,101288.72
2023-02-03T18:34:15.759Z,101284.06
2023-02-03T18:36:43.522Z,101294.50
2023-02-03T18:39:12.626Z,101296.34
2023-02-03T18:41:42.937Z,101298.81
2023-02-03T18:44:10.217Z,101298.09
2023-02-03T18:46:40.131Z,101300.56
2023-02-03T18:49:09.654Z,101305.69
2023-02-03T18:51:41.132Z,101306.81
2023-02-03T18:54:08.468Z,101315.69
2023-02-03T18:56:35.845Z,101324.28
2023-02-03T18:59:12.384Z,101326.97
2023-02-03T19:01:41.633Z,101327.69
2023-02-03T19:04:09.046Z,101328.16
2023-02-03T19:06:36.486Z,101327.50
2023-02-03T19:09:06.579Z,101338.69
2023-02-03T19:11:35.087Z,101334.13
2023-02-03T19:14:02.362Z,101343.28
2023-02-03T19:16:30.637Z,101355.25
2023-02-03T19:18:57.916Z,101360.84
2023-02-03T19:21:25.127Z,101365.16
2023-02-03T19:23:55.331Z,101372.34
2023-02-03T19:26:22.690Z,101373.53
2023-02-03T19:28:56.166Z,101381.75
2023-02-03T19:31:25.144Z,101383.19
2023-02-03T19:33:52.528Z,101384.75
2023-02-03T19:36:19.895Z,101400.19
2023-02-03T19:38:50.557Z,101399.91
2023-02-03T19:41:17.804Z,101412.75
2023-02-03T19:43:47.668Z,101409.41
2023-02-03T19:46:15.197Z,101410.50
2023-02-03T19:48:42.512Z,101411.94
2023-02-03T19:51:12.171Z,101406.03
2023-02-03T19:53:40.230Z,101425.00
2023-02-03T19:56:07.700Z,101425.53
2023-02-03T19:58:35.137Z,101432.25
2023-02-03T20:01:02.366Z,101432.63
2023-02-03T20:03:29.701Z,101432.56
2023-02-03T20:06:01.086Z,101436.88
2023-02-03T20:08:28.714Z,101453.47
2023-02-03T20:10:57.552Z,101454.31
2023-02-03T20:13:24.921Z,101466.09
2023-02-03T20:15:52.235Z,101465.81
2023-02-03T20:18:19.855Z,101473.44
2023-02-03T20:20:54.179Z,101482.06
2023-02-03T20:23:22.856Z,101486.00
2023-02-03T20:25:53.900Z,101481.31
2023-02-03T20:28:23.055Z,101492.72
2023-02-03T20:30:51.903Z,101500.97
2023-02-03T20:33:19.677Z,101505.38
2023-02-03T20:35:49.727Z,101513.09
2023-02-03T20:38:17.069Z,101519.97
2023-02-03T20:40:44.450Z,101530.19
2023-02-03T20:43:19.159Z,101545.53
2023-02-03T20:45:48.420Z,101530.41
2023-02-03T20:48:16.430Z,101539.72
2023-02-03T20:50:47.260Z,101549.25
2023-02-03T20:53:18.004Z,101549.91
2023-02-03T20:55:45.772Z,101555.56
2023-02-03T20:58:20.267Z,101555.09
2023-02-03T21:00:49.584Z,101564.34
2023-02-03T21:03:45.207Z,101576.13
2023-02-03T21:06:16.530Z,101583.03
2023-02-03T21:08:44.372Z,101583.88
2023-02-03T21:11:18.572Z,101598.88
2023-02-03T21:13:46.782Z,101595.59
2023-02-03T21:16:30.962Z,101601.22
2023-02-03T21:19:06.074Z,101597.13
2023-02-03T21:21:38.294Z,101611.66
2023-02-03T21:24:26.197Z,101613.38
2023-02-03T21:26:54.254Z,101621.59
2023-02-03T21:29:27.078Z,101615.75
2023-02-03T21:32:04.006Z,101634.13
2023-02-03T21:34:34.467Z,101631.78
2023-02-03T21:37:08.026Z,101642.06
2023-02-03T21:39:36.439Z,101650.72
2023-02-03T21:42:40.970Z,101646.97
2023-02-03T21:45:11.636Z,101649.09
2023-02-03T21:47:39.556Z,101644.56
2023-02-03T21:50:25.285Z,101652.13
2023-02-03T21:52:52.684Z,101661.91
2023-02-03T21:55:21.732Z,101661.66
2023-02-03T21:57:49.145Z,101659.97
2023-02-03T22:00:48.650Z,101675.38
2023-02-03T22:03:43.440Z,101683.78
2023-02-03T22:06:18.588Z,101692.09
2023-02-03T22:08:47.286Z,101690.44
2023-02-03T22:11:15.560Z,101686.59
2023-02-03T22:13:43.038Z,101685.84
2023-02-03T22:16:10.546Z,101683.50
2023-02-03T22:18:39.161Z,101691.91
2023-02-03T22:21:08.981Z,101700.16
2023-02-03T22:23:36.933Z,101698.22
2023-02-03T22:26:04.168Z,101702.84
2023-02-03T22:28:36.767Z,101704.13
2023-02-03T22:31:05.297Z,101701.31
2023-02-03T22:33:32.604Z,101699.94
2023-02-03T22:36:07.958Z,101708.78
2023-02-03T22:38:35.271Z,101710.50
2023-02-03T22:41:02.904Z,101711.94
2023-02-03T22:43:31.263Z,101727.69
2023-02-03T22:45:59.790Z,101740.41
2023-02-03T22:48:27.449Z,101744.09
2023-02-03T22:50:55.222Z,101756.66
2023-02-03T22:53:22.600Z,101757.97
2023-02-03T22:55:49.811Z,101775.19
2023-02-03T22:58:17.135Z,101765.72
2023-02-03T23:00:44.494Z,101782.19
2023-02-03T23:03:11.831Z,101778.41
2023-02-03T23:05:41.405Z,101778.06
2023-02-03T23:08:12.058Z,101779.78
2023-02-03T23:10:45.614Z,101783.38
2023-02-03T23:13:12.881Z,101788.84
2023-02-03T23:15:40.258Z,101796.88
2023-02-03T23:18:08.012Z,101794.44
2023-02-03T23:20:35.314Z,101807.19
2023-02-03T23:23:05.732Z,101804.78
2023-02-03T23:25:36.760Z,101802.47
2023-02-03T23:28:04.190Z,101794.28
2023-02-03T23:30:31.762Z,101800.75
2023-02-03T23:32:59.437Z,101806.88
2023-02-03T23:35:45.229Z,101808.13
2023-02-03T23:38:13.909Z,101812.28
2023-02-03T23:40:41.204Z,101806.25
2023-02-03T23:43:08.431Z,101816.19
2023-02-03T23:45:35.688Z,101820.41
2023-02-03T23:48:03.118Z,101822.69
2023-02-03T23:50:31.019Z,101827.00
2023-02-03T23:52:58.485Z,101830.66
2023-02-03T23:55:25.734Z,101841.31
2023-02-03T23:57:53.089Z,101837.28
